createdAt,value
2018-04-29T00:01:44.945Z,2.80
2018-04-29T00:04:13.329Z,2.60
2018-04-29T00:06:41.725Z,2.58
2018-04-29T00:09:09.329Z,2.80
2018-04-29T00:11:36.953Z,2.70
2018-04-29T00:14:04.590Z,2.80
2018-04-29T00:16:32.195Z,2.65
2018-04-29T00:18:59.858Z,2.60
2018-04-29T00:21:27.485Z,2.78
2018-04-29T00:23:55.138Z,2.62
2018-04-29T00:26:22.767Z,2.87
2018-04-29T00:28:50.716Z,2.80
2018-04-29T00:31:19.090Z,3.17
2018-04-29T00:33:47.455Z,3.47
2018-04-29T00:36:15.102Z,2.80
2018-04-29T00:38:42.722Z,3.15
2018-04-29T00:41:10.361Z,3.00
2018-04-29T00:43:37.979Z,3.00
2018-04-29T00:46:05.617Z,2.97
2018-04-29T00:48:33.257Z,3.10
2018-04-29T00:51:01.665Z,2.83
2018-04-29T00:53:30.061Z,3.00
2018-04-29T00:55:57.668Z,3.00
2018-04-29T00:58:25.303Z,3.12
2018-04-29T01:00:52.976Z,2.85
2018-04-29T01:03:20.552Z,2.62
2018-04-29T01:05:48.158Z,2.70
2018-04-29T01:08:15.836Z,2.87
2018-04-29T01:10:44.234Z,2.75
2018-04-29T01:13:11.857Z,2.80
2018-04-29T01:15:39.481Z,2.80
2018-04-29T01:18:07.089Z,2.55
2018-04-29T01:20:34.723Z,2.85
2018-04-29T01:23:02.351Z,3.03
2018-04-29T01:25:30.787Z,2.83
2018-04-29T01:27:58.421Z,2.70
2018-04-29T01:30:26.025Z,2.90
2018-04-29T01:32:53.634Z,3.10
2018-04-29T01:35:22.325Z,2.70
2018-04-29T01:37:50.692Z,2.87
2018-04-29T01:40:18.304Z,3.13
2018-04-29T01:42:45.931Z,2.78
2018-04-29T01:45:14.315Z,2.80
2018-04-29T01:47:41.936Z,3.03
2018-04-29T01:50:09.533Z,2.75
2018-04-29T01:52:37.947Z,3.00
2018-04-29T01:55:06.357Z,3.23
2018-04-29T01:57:33.950Z,3.28
2018-04-29T02:00:01.591Z,2.80
2018-04-29T02:02:29.283Z,2.92
2018-04-29T02:04:56.925Z,2.92
2018-04-29T02:07:24.520Z,3.17
2018-04-29T02:09:52.145Z,2.90
2018-04-29T02:12:19.781Z,2.97
2018-04-29T02:14:48.141Z,2.90
2018-04-29T02:17:15.745Z,2.90
2018-04-29T02:19:43.368Z,2.90
2018-04-29T02:22:11.741Z,2.80
2018-04-29T02:24:39.376Z,3.10
2018-04-29T02:27:06.987Z,3.03
2018-04-29T02:29:34.626Z,3.25
2018-04-29T02:32:02.257Z,2.97
2018-04-29T02:34:30.622Z,3.20
2018-04-29T02:36:58.221Z,3.03
2018-04-29T02:39:25.853Z,3.13
2018-04-29T02:41:54.234Z,2.97
2018-04-29T02:44:21.863Z,2.80
2018-04-29T02:46:49.493Z,2.95
2018-04-29T02:49:18.677Z,3.20
2018-04-29T02:51:46.335Z,3.05
2018-04-29T02:54:13.948Z,2.83
2018-04-29T02:56:41.577Z,3.05
2018-04-29T02:59:09.954Z,2.90
2018-04-29T03:01:37.578Z,3.22
2018-04-29T03:04:05.193Z,3.03
2018-04-29T03:06:33.605Z,3.00
2018-04-29T03:09:01.274Z,2.83
2018-04-29T03:11:28.863Z,2.95
2018-04-29T03:13:56.736Z,2.90
2018-04-29T03:16:24.338Z,3.10
2018-04-29T03:18:52.707Z,3.50
2018-04-29T03:21:20.335Z,3.20
2018-04-29T03:23:47.926Z,3.45
2018-04-29T03:26:15.552Z,3.15
2018-04-29T03:28:43.153Z,3.28
2018-04-29T03:31:10.740Z,3.28
2018-04-29T03:33:38.375Z,3.22
2018-04-29T03:36:05.970Z,3.03
2018-04-29T03:38:33.620Z,3.10
2018-04-29T03:41:01.280Z,3.12
2018-04-29T03:43:28.909Z,3.30
2018-04-29T03:45:56.534Z,3.20
2018-04-29T03:48:24.177Z,3.10
2018-04-29T03:50:51.804Z,3.60
2018-04-29T03:53:19.412Z,3.12
2018-04-29T03:55:47.232Z,3.17
2018-04-29T03:58:27.489Z,3.53
2018-04-29T04:01:07.591Z,3.10
2018-04-29T04:03:47.894Z,3.33
2018-04-29T04:06:16.305Z,3.37
2018-04-29T04:08:43.932Z,3.10
2018-04-29T04:11:12.335Z,3.20
2018-04-29T04:13:39.976Z,3.83
2018-04-29T04:16:07.580Z,3.55
2018-04-29T04:18:35.184Z,3.37
2018-04-29T04:21:02.808Z,3.53
2018-04-29T04:23:30.505Z,3.50
2018-04-29T04:25:58.133Z,3.30
2018-04-29T04:28:25.753Z,3.50
2018-04-29T04:30:53.354Z,3.28
2018-04-29T04:33:21.752Z,3.33
2018-04-29T04:35:49.372Z,3.25
2018-04-29T04:38:16.967Z,3.45
2018-04-29T04:40:45.376Z,3.33
2018-04-29T04:43:12.988Z,3.60
2018-04-29T04:45:40.604Z,3.62
2018-04-29T04:48:08.184Z,3.47
2018-04-29T04:50:35.864Z,3.25
2018-04-29T04:53:03.435Z,3.35
2018-04-29T04:55:31.028Z,3.40
2018-04-29T04:57:58.908Z,3.25
2018-04-29T05:00:26.507Z,3.17
2018-04-29T05:02:54.094Z,3.03
2018-04-29T05:05:21.725Z,3.25
2018-04-29T05:07:50.126Z,3.25
2018-04-29T05:10:17.739Z,3.20
2018-04-29T05:12:45.369Z,3.45
2018-04-29T05:15:13.012Z,3.30
2018-04-29T05:17:40.628Z,3.22
2018-04-29T05:20:08.255Z,3.00
2018-04-29T05:22:35.894Z,3.00
2018-04-29T05:25:04.972Z,3.45
2018-04-29T05:27:32.600Z,4.68
2018-04-29T05:30:00.212Z,3.17
2018-04-29T05:32:27.834Z,3.30
2018-04-29T05:34:56.259Z,3.10
2018-04-29T05:37:24.939Z,2.97
2018-04-29T05:39:52.547Z,3.37
2018-04-29T05:42:20.143Z,2.83
2018-04-29T05:44:48.049Z,2.72
2018-04-29T05:47:15.648Z,3.00
2018-04-29T05:49:43.317Z,2.63
2018-04-29T05:52:10.973Z,2.85
2018-04-29T05:54:39.387Z,2.90
2018-04-29T05:57:07.941Z,2.78
2018-04-29T05:59:36.347Z,2.67
2018-04-29T06:02:03.986Z,2.78
2018-04-29T06:04:32.400Z,2.90
2018-04-29T06:07:00.061Z,2.53
2018-04-29T06:09:27.732Z,2.80
2018-04-29T06:11:55.498Z,3.05
2018-04-29T06:14:23.158Z,2.97
2018-04-29T06:16:51.591Z,2.97
2018-04-29T06:19:19.316Z,2.70
2018-04-29T06:21:47.391Z,2.60
2018-04-29T06:24:15.037Z,2.40
2018-04-29T06:26:43.457Z,2.58
2018-04-29T06:29:11.425Z,2.55
2018-04-29T06:31:39.183Z,2.60
2018-04-29T06:34:06.848Z,2.40
2018-04-29T06:36:34.487Z,2.40
2018-04-29T06:39:02.234Z,2.28
2018-04-29T06:41:30.019Z,2.30
2018-04-29T06:43:57.668Z,2.28
2018-04-29T06:46:25.387Z,2.40
2018-04-29T06:48:53.023Z,2.25
2018-04-29T06:51:21.458Z,2.17
2018-04-29T06:53:49.093Z,2.33
2018-04-29T06:56:17.499Z,2.50
2018-04-29T06:58:45.155Z,2.42
2018-04-29T07:01:12.822Z,2.42
2018-04-29T07:03:42.457Z,2.25
2018-04-29T07:06:10.140Z,2.10
2018-04-29T07:08:37.809Z,2.25
2018-04-29T07:11:05.442Z,2.22
2018-04-29T07:13:33.085Z,1.93
2018-04-29T07:16:01.510Z,1.60
2018-04-29T07:18:29.157Z,1.90
2018-04-29T07:20:59.363Z,2.00
2018-04-29T07:23:27.975Z,1.77
2018-04-29T07:25:57.469Z,1.80
2018-04-29T07:28:25.064Z,2.10
2018-04-29T07:30:52.717Z,2.12
2018-04-29T07:33:24.370Z,1.65
2018-04-29T07:35:52.460Z,1.70
2018-04-29T07:38:20.118Z,1.83
2018-04-29T07:40:47.758Z,1.85
2018-04-29T07:43:15.403Z,1.60
2018-04-29T07:45:43.090Z,1.90
2018-04-29T07:48:11.492Z,1.60
2018-04-29T07:50:39.906Z,1.50
2018-04-29T07:53:07.562Z,2.12
2018-04-29T07:55:35.216Z,1.90
2018-04-29T07:58:03.256Z,1.60
2018-04-29T08:00:30.909Z,1.80
2018-04-29T08:02:58.533Z,1.80
2018-04-29T08:05:26.492Z,1.37
2018-04-29T08:07:54.873Z,1.45
2018-04-29T08:10:23.263Z,1.70
2018-04-29T08:12:51.665Z,1.50
2018-04-29T08:15:19.288Z,1.50
2018-04-29T08:17:46.907Z,1.50
2018-04-29T08:20:14.528Z,1.23
2018-04-29T08:22:42.905Z,1.50
2018-04-29T08:25:11.322Z,1.20
2018-04-29T08:27:38.949Z,1.45
2018-04-29T08:30:06.710Z,1.52
2018-04-29T08:32:34.314Z,1.40
2018-04-29T08:35:02.697Z,1.35
2018-04-29T08:37:30.348Z,1.30
2018-04-29T08:39:57.991Z,1.45
2018-04-29T08:42:26.527Z,1.30
2018-04-29T08:44:54.177Z,1.30
2018-04-29T08:47:22.160Z,1.30
2018-04-29T08:49:50.529Z,1.50
2018-04-29T08:52:18.892Z,1.47
2018-04-29T08:54:46.521Z,1.23
2018-04-29T08:57:14.121Z,1.40
2018-04-29T08:59:41.762Z,1.27
2018-04-29T09:02:09.379Z,1.30
2018-04-29T09:04:38.424Z,1.45
2018-04-29T09:07:06.035Z,1.33
2018-04-29T09:09:34.392Z,1.10
2018-04-29T09:12:02.016Z,0.95
2018-04-29T09:14:29.602Z,1.23
2018-04-29T09:16:57.290Z,1.00
2018-04-29T09:19:24.843Z,1.10
2018-04-29T09:21:52.447Z,1.30
2018-04-29T09:24:20.857Z,1.05
2018-04-29T09:26:48.502Z,1.17
2018-04-29T09:29:16.883Z,1.00
2018-04-29T09:31:45.250Z,1.02
2018-04-29T09:34:13.694Z,1.00
2018-04-29T09:36:41.620Z,1.10
2018-04-29T09:39:09.998Z,1.10
2018-04-29T09:41:37.592Z,1.05
2018-04-29T09:44:05.225Z,0.80
2018-04-29T09:46:32.850Z,1.15
2018-04-29T09:49:00.481Z,1.00
2018-04-29T09:51:28.824Z,0.80
2018-04-29T09:53:56.406Z,0.80
2018-04-29T09:56:24.059Z,1.00
2018-04-29T09:58:51.799Z,0.70
2018-04-29T10:01:25.254Z,0.70
2018-04-29T10:03:52.865Z,0.73
2018-04-29T10:06:20.482Z,0.70
2018-04-29T10:08:48.850Z,0.70
2018-04-29T10:11:16.458Z,0.80
2018-04-29T10:13:44.101Z,0.73
2018-04-29T10:16:12.478Z,0.55
2018-04-29T10:18:40.125Z,0.77
2018-04-29T10:21:07.750Z,0.80
2018-04-29T10:23:35.360Z,0.80
2018-04-29T10:26:03.002Z,0.70
2018-04-29T10:28:30.639Z,0.65
2018-04-29T10:30:58.288Z,0.60
2018-04-29T10:33:26.671Z,0.60
2018-04-29T10:35:55.016Z,0.75
2018-04-29T10:38:22.921Z,0.68
2018-04-29T10:40:51.297Z,0.60
2018-04-29T10:43:19.665Z,0.65
2018-04-29T10:45:47.283Z,0.70
2018-04-29T10:48:14.867Z,0.70
2018-04-29T10:50:42.527Z,0.57
2018-04-29T10:53:10.128Z,0.60
2018-04-29T10:55:37.739Z,0.60
2018-04-29T10:58:05.320Z,0.40
2018-04-29T11:00:32.932Z,0.57
2018-04-29T11:03:01.552Z,0.60
2018-04-29T11:05:29.895Z,0.50
2018-04-29T11:07:57.792Z,0.50
2018-04-29T11:10:26.135Z,0.70
2018-04-29T11:12:53.707Z,0.70
2018-04-29T11:15:21.611Z,0.70
2018-04-29T11:17:49.955Z,0.70
2018-04-29T11:20:17.543Z,0.70
2018-04-29T11:22:45.180Z,0.70
2018-04-29T11:25:12.814Z,0.90
2018-04-29T11:27:40.441Z,0.70
2018-04-29T11:30:08.082Z,0.65
2018-04-29T11:32:35.700Z,0.52
2018-04-29T11:35:03.349Z,0.75
2018-04-29T11:37:30.932Z,0.50
2018-04-29T11:39:59.275Z,0.70
2018-04-29T11:42:26.895Z,0.70
2018-04-29T11:44:54.519Z,0.70
2018-04-29T11:47:22.185Z,0.60
2018-04-29T11:49:49.772Z,0.73
2018-04-29T11:52:18.205Z,0.68
2018-04-29T11:54:45.785Z,0.70
2018-04-29T11:57:13.429Z,0.70
2018-04-29T11:59:41.068Z,0.62
2018-04-29T12:02:08.656Z,0.67
2018-04-29T12:04:36.268Z,0.97
2018-04-29T12:07:04.657Z,0.80
2018-04-29T12:09:32.252Z,0.60
2018-04-29T12:12:00.033Z,0.80
2018-04-29T12:14:27.796Z,0.90
2018-04-29T12:16:55.600Z,0.80
2018-04-29T12:19:23.263Z,0.70
2018-04-29T12:21:50.889Z,0.70
2018-04-29T12:24:18.479Z,0.77
2018-04-29T12:26:46.108Z,0.70
2018-04-29T12:29:14.509Z,0.70
2018-04-29T12:31:42.943Z,0.60
2018-04-29T12:34:10.577Z,0.60
2018-04-29T12:36:38.197Z,0.77
2018-04-29T12:39:06.800Z,0.50
2018-04-29T12:41:35.207Z,0.70
2018-04-29T12:44:03.148Z,0.50
2018-04-29T12:46:31.526Z,0.80
2018-04-29T12:48:59.516Z,0.57
2018-04-29T12:51:27.139Z,0.70
2018-04-29T12:53:54.778Z,0.70
2018-04-29T12:56:22.417Z,0.50
2018-04-29T12:58:50.828Z,0.73
2018-04-29T13:01:18.426Z,0.75
2018-04-29T13:03:47.191Z,0.80
2018-04-29T13:06:14.836Z,0.68
2018-04-29T13:08:42.795Z,0.60
2018-04-29T13:11:11.205Z,0.60
2018-04-29T13:13:39.323Z,0.73
2018-04-29T13:16:06.940Z,0.60
2018-04-29T13:18:34.531Z,0.57
2018-04-29T13:21:02.164Z,0.60
2018-04-29T13:23:29.769Z,0.73
2018-04-29T13:25:57.401Z,0.60
2018-04-29T13:28:25.030Z,1.10
2018-04-29T13:30:52.693Z,1.10
2018-04-29T13:33:20.294Z,0.90
2018-04-29T13:35:47.983Z,0.77
2018-04-29T13:38:16.347Z,0.70
2018-04-29T13:40:43.931Z,0.68
2018-04-29T13:43:11.541Z,0.65
2018-04-29T13:45:40.183Z,0.65
2018-04-29T13:48:07.849Z,0.80
2018-04-29T13:50:35.443Z,0.60
2018-04-29T13:53:03.393Z,0.87
2018-04-29T13:55:31.043Z,0.62
2018-04-29T13:57:58.644Z,0.70
2018-04-29T14:00:26.276Z,0.70
2018-04-29T14:02:53.856Z,0.80
2018-04-29T14:05:21.481Z,0.60
2018-04-29T14:07:49.091Z,0.60
2018-04-29T14:10:16.693Z,0.62
2018-04-29T14:12:45.103Z,0.60
2018-04-29T14:15:12.696Z,0.57
2018-04-29T14:17:41.211Z,0.60
2018-04-29T14:20:09.168Z,0.50
2018-04-29T14:22:36.834Z,0.70
2018-04-29T14:25:04.516Z,0.77
2018-04-29T14:27:32.179Z,0.55
2018-04-29T14:29:59.776Z,0.70
2018-04-29T14:32:28.209Z,0.60
2018-04-29T14:34:55.840Z,0.98
2018-04-29T14:37:23.553Z,0.85
2018-04-29T14:39:51.232Z,0.65
2018-04-29T14:42:18.849Z,0.68
2018-04-29T14:44:46.454Z,0.83
2018-04-29T14:47:14.096Z,0.70
2018-04-29T14:49:41.727Z,0.62
2018-04-29T14:52:09.361Z,0.77
2018-04-29T14:54:36.963Z,0.70
2018-04-29T14:57:04.572Z,0.60
2018-04-29T14:59:32.203Z,0.60
2018-04-29T15:01:59.811Z,0.70
2018-04-29T15:04:27.463Z,0.70
2018-04-29T15:06:55.195Z,0.70
2018-04-29T15:09:22.804Z,0.85
2018-04-29T15:11:50.469Z,0.60
2018-04-29T15:14:18.088Z,0.60
2018-04-29T15:16:46.769Z,0.70
2018-04-29T15:19:15.179Z,0.80
2018-04-29T15:21:42.789Z,0.75
2018-04-29T15:24:10.412Z,0.90
2018-04-29T15:26:38.075Z,0.70
2018-04-29T15:29:05.705Z,0.70
2018-04-29T15:31:33.343Z,0.70
2018-04-29T15:34:00.962Z,0.80
2018-04-29T15:36:29.337Z,0.80
2018-04-29T15:38:58.045Z,0.80
2018-04-29T15:41:26.214Z,0.90
2018-04-29T15:43:54.598Z,0.90
2018-04-29T15:46:23.023Z,1.02
2018-04-29T15:48:50.626Z,1.17
2018-04-29T15:51:19.916Z,1.95
2018-04-29T15:53:47.520Z,2.15
2018-04-29T15:56:15.992Z,1.33
2018-04-29T15:58:43.618Z,1.30
2018-04-29T16:01:11.197Z,1.00
2018-04-29T16:03:38.899Z,1.10
2018-04-29T16:06:06.505Z,1.00
2018-04-29T16:08:34.403Z,0.80
2018-04-29T16:11:01.992Z,0.98
2018-04-29T16:13:30.372Z,1.07
2018-04-29T16:15:58.074Z,0.88
2018-04-29T16:18:25.709Z,0.80
2018-04-29T16:20:53.300Z,0.80
2018-04-29T16:23:21.507Z,0.93
2018-04-29T16:25:49.918Z,0.90
2018-04-29T16:28:17.539Z,1.07
2018-04-29T16:30:45.132Z,1.08
2018-04-29T16:33:12.967Z,1.00
2018-04-29T16:35:40.557Z,1.10
2018-04-29T16:38:08.216Z,0.90
2018-04-29T16:40:36.560Z,1.12
2018-04-29T16:43:04.236Z,1.50
2018-04-29T16:45:31.870Z,1.20
2018-04-29T16:47:59.451Z,1.00
2018-04-29T16:50:27.077Z,1.08
2018-04-29T16:52:54.703Z,1.10
2018-04-29T16:55:23.159Z,1.00
2018-04-29T16:57:50.731Z,1.20
2018-04-29T17:00:18.322Z,0.90
2018-04-29T17:02:45.946Z,1.20
2018-04-29T17:05:13.532Z,1.00
2018-04-29T17:07:41.254Z,1.08
2018-04-29T17:10:08.892Z,1.10
2018-04-29T17:12:36.546Z,0.90
2018-04-29T17:15:04.894Z,1.00
2018-04-29T17:17:32.514Z,1.03
2018-04-29T17:20:00.145Z,1.10
2018-04-29T17:22:27.753Z,1.25
2018-04-29T17:24:55.391Z,1.00
2018-04-29T17:27:23.793Z,1.20
2018-04-29T17:29:51.456Z,0.85
2018-04-29T17:32:19.055Z,1.30
2018-04-29T17:34:46.675Z,1.20
2018-04-29T17:37:15.378Z,1.20
2018-04-29T17:39:43.755Z,1.30
2018-04-29T17:42:12.142Z,1.20
2018-04-29T17:44:39.775Z,1.00
2018-04-29T17:47:07.395Z,1.30
2018-04-29T17:49:34.997Z,1.20
2018-04-29T17:52:02.642Z,1.10
2018-04-29T17:54:30.273Z,1.33
2018-04-29T17:56:58.687Z,1.20
2018-04-29T17:59:26.344Z,1.27
2018-04-29T18:01:53.943Z,1.20
2018-04-29T18:04:21.880Z,1.33
2018-04-29T18:06:49.511Z,1.17
2018-04-29T18:09:17.113Z,1.20
2018-04-29T18:11:44.765Z,1.20
2018-04-29T18:14:12.408Z,1.30
2018-04-29T18:16:40.798Z,1.30
2018-04-29T18:19:09.213Z,1.30
2018-04-29T18:21:36.875Z,1.35
2018-04-29T18:24:04.474Z,1.40
2018-04-29T18:26:32.113Z,1.30
2018-04-29T18:28:59.742Z,1.35
2018-04-29T18:31:27.392Z,1.40
2018-04-29T18:33:54.989Z,1.50
2018-04-29T18:36:22.745Z,1.40
2018-04-29T18:38:51.152Z,1.60
2018-04-29T18:41:18.792Z,1.57
2018-04-29T18:43:46.404Z,1.50
2018-04-29T18:46:14.076Z,1.83
2018-04-29T18:48:41.705Z,1.60
2018-04-29T18:51:09.591Z,1.50
2018-04-29T18:53:37.057Z,1.65
2018-04-29T18:56:04.760Z,1.60
2018-04-29T18:58:33.302Z,1.45
2018-04-29T19:01:01.005Z,1.40
2018-04-29T19:03:29.408Z,1.55
2018-04-29T19:05:59.727Z,1.43
2018-04-29T19:08:27.394Z,1.37
2018-04-29T19:10:55.015Z,1.45
2018-04-29T19:13:23.454Z,1.40
2018-04-29T19:15:51.097Z,1.55
2018-04-29T19:18:18.722Z,1.30
2018-04-29T19:20:46.506Z,1.40
2018-04-29T19:23:14.118Z,1.62
2018-04-29T19:25:42.069Z,1.53
2018-04-29T19:28:10.076Z,1.48
2018-04-29T19:30:37.682Z,1.50
2018-04-29T19:33:06.407Z,1.33
2018-04-29T19:35:34.054Z,1.60
2018-04-29T19:38:02.481Z,1.33
2018-04-29T19:40:30.116Z,1.23
2018-04-29T19:42:58.536Z,1.70
2018-04-29T19:45:26.607Z,1.70
2018-04-29T19:47:54.242Z,1.52
2018-04-29T19:50:21.904Z,1.55
2018-04-29T19:52:50.389Z,1.75
2018-04-29T19:55:19.015Z,1.60
2018-04-29T19:57:47.254Z,1.70
2018-04-29T20:00:15.679Z,1.62
2018-04-29T20:02:43.325Z,1.52
2018-04-29T20:05:10.939Z,1.83
2018-04-29T20:07:38.563Z,2.10
2018-04-29T20:10:06.203Z,1.75
2018-04-29T20:12:34.590Z,1.80
2018-04-29T20:15:02.959Z,1.77
2018-04-29T20:17:30.607Z,1.57
2018-04-29T20:19:58.224Z,1.90
2018-04-29T20:22:25.835Z,1.70
2018-04-29T20:24:53.474Z,1.80
2018-04-29T20:27:21.118Z,1.60
2018-04-29T20:29:48.738Z,1.92
2018-04-29T20:45:45.004Z,1.90
2018-04-29T20:48:13.127Z,1.53
2018-04-29T20:50:40.781Z,2.03
2018-04-29T20:53:08.391Z,1.90
2018-04-29T20:55:36.798Z,1.70
2018-04-29T20:58:04.401Z,1.83
2018-04-29T21:00:32.055Z,2.10
2018-04-29T21:02:59.690Z,1.90
2018-04-29T21:05:27.324Z,2.15
2018-04-29T21:07:55.762Z,2.00
2018-04-29T21:10:23.400Z,2.10
2018-04-29T21:12:51.039Z,2.10
2018-04-29T21:15:19.412Z,1.92
2018-04-29T21:17:47.060Z,1.80
2018-04-29T21:20:14.673Z,2.00
2018-04-29T21:22:42.320Z,2.20
2018-04-29T21:25:09.951Z,1.90
2018-04-29T21:27:37.547Z,2.22
2018-04-29T21:30:05.195Z,1.83
2018-04-29T21:32:32.834Z,1.98
2018-04-29T21:35:00.451Z,1.85
2018-04-29T21:37:28.847Z,2.15
2018-04-29T21:39:57.244Z,2.00
2018-04-29T21:42:25.629Z,1.85
2018-04-29T21:44:53.278Z,1.83
2018-04-29T21:47:21.706Z,1.90
2018-04-29T21:49:49.349Z,2.12
2018-04-29T21:52:16.959Z,1.90
2018-04-29T21:54:44.596Z,1.90
2018-04-29T21:57:12.242Z,2.35
2018-04-29T21:59:40.238Z,1.95
2018-04-29T22:02:07.858Z,2.00
2018-04-29T22:04:36.294Z,1.98
2018-04-29T22:07:03.893Z,2.20
2018-04-29T22:09:31.562Z,2.20
2018-04-29T22:11:59.190Z,2.00
2018-04-29T22:14:26.840Z,2.17
2018-04-29T22:16:54.440Z,2.35
2018-04-29T22:19:22.047Z,1.85
2018-04-29T22:21:50.444Z,2.12
2018-04-29T22:24:18.814Z,2.00
2018-04-29T22:26:47.226Z,2.10
2018-04-29T22:29:14.885Z,2.35
2018-04-29T22:31:42.508Z,2.25
2018-04-29T22:34:10.137Z,2.20
2018-04-29T22:36:37.753Z,2.22
2018-04-29T22:39:05.386Z,1.97
2018-04-29T22:41:33.025Z,1.80
2018-04-29T22:44:00.666Z,2.20
2018-04-29T22:46:29.042Z,2.20
2018-04-29T22:48:56.675Z,2.03
2018-04-29T22:51:24.317Z,2.05
2018-04-29T22:53:51.938Z,2.33
2018-04-29T22:56:20.325Z,2.15
2018-04-29T22:58:48.719Z,2.12
2018-04-29T23:01:17.115Z,2.12
2018-04-29T23:03:44.714Z,2.12
2018-04-29T23:06:12.348Z,2.20
2018-04-29T23:08:39.992Z,2.28
2018-04-29T23:11:07.621Z,2.40
2018-04-29T23:13:35.254Z,2.00
2018-04-29T23:16:03.662Z,2.70
2018-04-29T23:18:31.320Z,2.40
2018-04-29T23:20:58.923Z,2.40
2018-04-29T23:23:26.544Z,2.70
2018-04-29T23:25:54.181Z,2.45
2018-04-29T23:28:22.581Z,2.57
2018-04-29T23:30:50.212Z,2.53
2018-04-29T23:33:18.550Z,2.37
2018-04-29T23:35:46.193Z,2.20
2018-04-29T23:38:13.842Z,2.50
2018-04-29T23:40:42.231Z,2.53
2018-04-29T23:43:10.650Z,2.50
2018-04-29T23:45:38.282Z,2.12
2018-04-29T23:48:06.669Z,2.60
2018-04-29T23:50:34.652Z,2.37
2018-04-29T23:53:02.239Z,2.33
2018-04-29T23:55:29.837Z,2.70
2018-04-29T23:57:57.483Z,2.60
